• Join FlightAware (Why Join?)
  • Login
  • US Flag 
06:37AM EST


 

Airport Tracker/Info


-or-


 

Live Flight TrackerFlight Track Log ✈ UAL1494 ✈ 27-Sep-2013 ✈ KSFO - KORD

Flight Track Log - Related Links

Times and Time Zones

All times are in EDT time to prevent confusion due to time zone crossing. See the UAL1494 flight status page for this flight to view local times or setup timezone preferences in your user account.

Time Position Orientation Groundspeed Altitude Reporting Facility
EDT Latitude Longitude Course Direction KTS MPH feet Rate Location/Type
06:05PM 37.6500 -122.3500 72° East 190 219 1,500  Level Northern Cal TRACON
06:06PM 37.6833 -122.2833 58° Northeast 246 283 3,600 2,700 Climbing Northern Cal TRACON
06:07PM 37.7500 -122.2500 22° Northeast 288 331 7,000 3,240 Climbing Northern Cal TRACON
06:07PM 37.8000 -122.1833 46° Northeast 280 322 9,900 2,220 Climbing Northern Cal TRACON
06:08PM 37.7817 -121.8429 69° East  Level FlightAware Approximate
06:08PM 37.8167 -122.0833 78° East 327 376 11,300  Level Northern Cal TRACON
06:09PM 37.8368 -121.6962 70° East  Level FlightAware Approximate
06:09PM 37.8500 -121.9500 72° East 374 430 13,400  Level Northern Cal TRACON
06:10PM 37.8924 -121.5473 72° East  Level FlightAware Approximate
06:11PM 37.8922 -121.7950 71° East 391 450 16,200  Level Oakland Center
06:12PM 37.9239 -121.6575 74° East 406 467 18,400 1,980 Climbing Oakland Center
06:13PM 37.9569 -121.5131 74° East 425 489 20,300 1,800 Climbing Oakland Center
06:14PM 37.9922 -121.3661 73° East 441 507 22,200 1,800 Climbing Oakland Center
06:15PM 38.0267 -121.2136 74° East 452 520 24,000 1,620 Climbing Oakland Center
06:16PM 38.0625 -121.0561 74° East 466 536 25,600 1,560 Climbing Oakland Center
06:17PM 38.1069 -120.8625 74° East 477 549 27,300 1,380 Climbing Oakland Center
06:18PM 38.1478 -120.6978 72° East 487 560 28,500 1,260 Climbing Oakland Center
06:19PM 38.1861 -120.5269 74° East 500 575 29,900 1,440 Climbing Oakland Center
06:20PM 38.2169 -120.3533 77° East 506 582 31,500 1,440 Climbing Oakland Center
06:21PM 38.2464 -120.1789 78° East 506 582 32,900 1,260 Climbing Oakland Center
06:22PM 38.2769 -120.0047 77° East 507 583 34,100 960 Climbing Oakland Center
06:23PM 38.3136 -119.7953 77° East 508 585 35,000 420 Climbing Oakland Center
06:24PM 38.3417 -119.6183 79° East 512 589 35,000  Level Oakland Center
06:25PM 38.3736 -119.4342 77° East 514 592 35,000  Level Oakland Center
06:26PM 38.4028 -119.2589 78° East 510 587 35,000  Level Oakland Center
06:27PM 38.4317 -119.0819 78° East 511 588 35,000  Level Oakland Center
06:28PM 38.4592 -118.9053 79° East 512 589 35,000  Level Oakland Center
06:29PM 38.4886 -118.7300 78° East 509 586 35,000  Level Oakland Center
06:30PM 38.5153 -118.5542 79° East 509 586 35,000  Level Oakland Center
06:31PM 38.5486 -118.3419 79° East 510 587 35,000  Level Oakland Center
06:32PM 38.5767 -118.1647 78° East 512 589 35,000  Level Oakland Center
06:33PM 38.6047 -117.9783 79° East 513 590 35,000  Level Oakland Center
06:34PM 38.6322 -117.7986 79° East 513 590 35,000  Level Oakland Center
06:35PM 38.6586 -117.6189 79° East 511 588 35,000  Level Oakland Center
06:36PM 38.6850 -117.4389 79° East 511 588 35,000  Level Oakland Center
06:37PM 38.7117 -117.2589 79° East 511 588 35,000  Level Oakland Center
06:38PM 38.7381 -117.0789 79° East 511 588 35,000  Level Oakland Center
06:39PM 38.7639 -116.8975 80° East 513 590 35,000  Level Oakland Center
06:41PM 38.7881 -116.7181 80° East 511 588 35,000  Level Salt Lake Center
06:42PM 38.8136 -116.5367 80° East 513 590 35,000  Level Oakland Center
06:43PM 38.8433 -116.3222 80° East 511 588 35,000  Level Salt Lake Center
06:44PM 38.8675 -116.1478 80° East 511 588 35,000  Level Oakland Center
06:45PM 38.8919 -115.9622 80° East 512 589 35,000  Level Salt Lake Center
06:46PM 38.9158 -115.7839 80° East 509 586 35,000  Level Salt Lake Center
06:47PM 38.9389 -115.6044 81° East 510 587 35,000  Level Salt Lake Center
06:48PM 38.9625 -115.4242 80° East 510 587 35,000  Level Salt Lake Center
06:49PM 38.9911 -115.2136 80° East 515 593 35,000  Level Salt Lake Center
06:50PM 39.0131 -115.0347 81° East 510 587 35,000  Level Salt Lake Center
06:51PM 39.0358 -114.8547 81° East 510 587 35,000  Level Salt Lake Center
06:52PM 39.0583 -114.6739 81° East 511 588 35,000  Level Salt Lake Center
06:53PM 39.0800 -114.4953 81° East 508 585 35,000  Level Salt Lake Center
06:54PM 39.1017 -114.3156 81° East 507 583 35,000  Level Salt Lake Center
06:55PM 39.1225 -114.1344 82° East 511 588 35,000  Level Salt Lake Center
06:56PM 39.1489 -113.9183 81° East 511 588 35,000  Level Salt Lake Center
06:57PM 39.1694 -113.7372 82° East 511 588 35,000  Level Salt Lake Center
06:58PM 39.1892 -113.5564 82° East 510 587 35,000  Level Salt Lake Center
06:59PM 39.2094 -113.3781 82° East 506 582 35,000  Level Salt Lake Center
07:00PM 39.2292 -113.1967 82° East 509 586 35,000  Level Salt Lake Center
07:01PM 39.2483 -113.0169 82° East 507 583 35,000  Level Salt Lake Center
07:02PM 39.2678 -112.8369 82° East 507 583 35,000  Level Salt Lake Center
07:03PM 39.2881 -112.6428 82° East 506 582 35,000  Level Salt Lake Center
07:04PM 39.3092 -112.4664 81° East 504 580 35,000  Level Salt Lake Center
07:05PM 39.3414 -112.2964 76° East 499 574 35,000  Level Salt Lake Center
07:06PM 39.3797 -112.0897 76° East 495 570 35,000  Level Salt Lake Center
07:07PM 39.4119 -111.9189 76° East 492 566 35,000  Level Salt Lake Center
07:08PM 39.4428 -111.7469 77° East 494 568 35,000  Level Salt Lake Center
07:09PM 39.4742 -111.5758 77° East 492 566 35,000  Level Salt Lake Center
07:10PM 39.5056 -111.4058 76° East 490 564 35,000  Level Salt Lake Center
07:11PM 39.5369 -111.2239 77° East 493 567 35,000  Level Salt Lake Center
07:12PM 39.5714 -111.0275 77° East 499 574 35,000  Level Salt Lake Center
07:13PM 39.6022 -110.8567 77° East 506 582 35,000  Level Salt Lake Center
07:15PM 39.6308 -110.6831 78° East 513 590 35,000  Level Salt Lake Center
07:16PM 39.6658 -110.4811 77° East 514 592 35,000  Level Salt Lake Center
07:17PM 39.6950 -110.3067 78° East 516 594 35,000  Level Salt Lake Center
07:18PM 39.7294 -110.1036 77° East 515 593 35,000  Level Salt Lake Center
07:19PM 39.7658 -109.9317 75° East 516 594 35,000  Level Salt Lake Center
07:20PM 39.8153 -109.7358 72° East 510 587 35,000  Level Salt Lake Center
07:21PM 39.8603 -109.5667 71° East 515 593 35,000  Level Salt Lake Center
07:22PM 39.9039 -109.3972 71° East 514 592 35,000  Level Salt Lake Center
07:23PM 39.9553 -109.1969 71° East 518 596 35,000  Level Salt Lake Center
07:24PM 39.9986 -109.0253 72° East 518 596 35,000  Level Salt Lake Center
07:24PM 40.0197 -108.9378 72° East 516 594 35,000  Level Denver Center
07:25PM 40.0697 -108.7364 72° East 518 596 35,000  Level Denver Center
07:26PM 40.1119 -108.5642 72° East 518 596 35,000  Level Denver Center
07:27PM 40.1333 -108.4792 72° East 519 597 35,000  Level Salt Lake Center
07:28PM 40.1836 -108.2756 72° East 523 602 35,000  Level Salt Lake Center
07:28PM 40.2039 -108.1850 74° East 526 605 35,000  Level Denver Center
07:29PM 40.2467 -108.0081 72° East 531 611 35,000  Level Denver Center
07:30PM 40.2964 -107.7994 73° East 536 617 35,000  Level Denver Center
07:31PM 40.3383 -107.6206 73° East 537 618 35,000  Level Denver Center
07:33PM 40.3883 -107.4125 72° East 535 616 35,000  Level Denver Center
07:34PM 40.4297 -107.2344 73° East 534 615 35,000  Level Denver Center
07:35PM 40.4769 -107.0278 73° East 530 610 35,000  Level Denver Center
07:36PM 40.5183 -106.8528 73° East 538 619 35,000  Level Denver Center
07:37PM 40.5617 -106.6644 73° East 538 619 35,000  Level Denver Center
07:38PM 40.6097 -106.4561 73° East 540 621 35,000  Level Denver Center
07:39PM 40.6572 -106.2419 74° East 544 626 35,000  Level Denver Center
07:40PM 40.6997 -106.0422 74° East 547 629 35,000  Level Denver Center
07:41PM 40.7417 -105.8517 74° East 543 625 35,000  Level Denver Center
07:42PM 40.7819 -105.6617 74° East 539 620 35,000  Level Denver Center
07:43PM 40.8233 -105.4711 74° East 538 619 35,000  Level Denver Center
07:44PM 40.8633 -105.2814 74° East 538 619 35,000  Level Denver Center
07:45PM 40.9017 -105.0950 75° East 530 610 35,000  Level Denver Center
07:46PM 40.9497 -104.8692 74° East 530 610 35,000  Level Denver Center
07:47PM 40.9892 -104.6800 74° East 532 612 35,000  Level Denver Center
07:48PM 41.0256 -104.5019 75° East 528 608 35,000  Level Denver Center
07:49PM 41.0683 -104.2906 75° East 531 611 35,000  Level Denver Center
07:50PM 41.1044 -104.1119 75° East 528 608 35,000  Level Denver Center
07:51PM 41.1464 -103.9017 75° East 530 610 35,000  Level Denver Center
07:52PM 41.1817 -103.7219 75° East 529 609 35,000  Level Denver Center
07:53PM 41.2228 -103.5106 75° East 530 610 35,000  Level Denver Center
07:54PM 41.2581 -103.3292 75° East 531 611 35,000  Level Denver Center
07:55PM 41.2981 -103.1183 76° East 529 609 35,000 60 Level Denver Center
07:56PM 41.3339 -102.9356 75° East 534 615 35,200 720 Climbing Denver Center
07:57PM 41.3728 -102.7222 76° East 533 613 36,600 840 Climbing Denver Center
07:58PM 41.4061 -102.5461 76° East 535 616 37,000 180 Climbing Denver Center
07:59PM 41.4456 -102.3311 76° East 535 616 37,000  Level Denver Center
08:00PM 41.4800 -102.1467 76° East 536 617 37,000  Level Denver Center
08:01PM 41.5183 -101.9322 77° East 532 612 37,000  Level Denver Center
08:03PM 41.5519 -101.7472 76° East 533 613 37,000  Level Denver Center
08:04PM 41.5903 -101.5311 77° East 534 615 37,000  Level Denver Center
08:05PM 41.6219 -101.3456 77° East 534 615 37,000  Level Denver Center
08:06PM 41.6542 -101.1594 77° East 535 616 37,000  Level Denver Center
08:07PM 41.6914 -100.9419 77° East 535 616 37,000  Level Denver Center
08:08PM 41.7236 -100.7547 77° East 536 617 37,000  Level Denver Center
08:09PM 41.7592 -100.5383 78° East 533 613 37,000  Level Denver Center
08:10PM 41.7894 -100.3525 78° East 533 613 37,000  Level Denver Center
08:11PM 41.8244 -100.1381 78° East 528 608 37,000  Level Denver Center
08:12PM 41.8539 -99.9542 78° East 527 606 37,000  Level Denver Center
08:13PM 41.8881 -99.7394 78° East 527 606 37,000  Level Denver Center
08:14PM 41.9144 -99.5742 78° East 525 604 37,000  Level Denver Center
08:15PM 41.9503 -99.3433 78° East 523 602 37,000  Level Denver Center
08:16PM 41.9689 -99.2294 78° East 525 604 37,000  Level Minneapolis Center
08:17PM 41.9972 -99.0375 79° East 522 601 37,000  Level Minneapolis Center
08:18PM 42.0247 -98.8461 79° East 520 598 37,000  Level Minneapolis Center
08:19PM 42.0464 -98.6544 81° East 518 596 37,000  Level Minneapolis Center
08:20PM 42.0650 -98.4622 83° East 517 595 37,000  Level Minneapolis Center
08:21PM 42.0833 -98.2692 83° East 518 596 37,000  Level Minneapolis Center
08:22PM 42.1039 -98.0642 82° East 522 601 37,000  Level Minneapolis Center
08:23PM 42.1256 -97.8386 83° East 526 605 37,000  Level Minneapolis Center
08:24PM 42.1411 -97.6706 83° East 530 610 37,000  Level Minneapolis Center
08:25PM 42.1633 -97.4322 83° East 533 613 37,000  Level Minneapolis Center
08:26PM 42.1811 -97.2325 83° East 536 617 37,000  Level Minneapolis Center
08:27PM 42.1989 -97.0306 83° East 539 620 37,000  Level Minneapolis Center
08:28PM 42.2161 -96.8300 83° East 539 620 37,000  Level Minneapolis Center
08:29PM 42.2333 -96.6311 83° East 535 616 37,000  Level Minneapolis Center
08:30PM 42.2494 -96.4308 84° East 534 615 37,000  Level Minneapolis Center
08:31PM 42.2658 -96.2333 84° East 531 611 37,000  Level Minneapolis Center
08:32PM 42.2847 -95.9928 84° East 532 612 37,000  Level Minneapolis Center
08:33PM 42.3011 -95.7936 84° East 531 611 37,000  Level Minneapolis Center
08:34PM 42.3158 -95.5928 84° East 534 615 37,000  Level Minneapolis Center
08:35PM 42.3300 -95.3947 84° East 531 611 37,000  Level Minneapolis Center
08:36PM 42.3439 -95.1997 84° East 526 605 37,000  Level Minneapolis Center
08:37PM 42.3583 -95.0008 84° East 529 609 37,000  Level Minneapolis Center
08:38PM 42.3711 -94.8044 85° East 525 604 37,000  Level Minneapolis Center
08:39PM 42.3861 -94.5678 85° East 526 605 37,000  Level Minneapolis Center
08:40PM 42.3986 -94.3708 85° East 525 604 37,000  Level Minneapolis Center
08:41PM 42.4100 -94.1969 85° East 526 605 37,000  Level Minneapolis Center
08:42PM 42.4239 -93.9625 85° East 527 606 37,000  Level Minneapolis Center
08:43PM 42.4361 -93.7669 85° East 527 606 37,000  Level Minneapolis Center
08:45PM 42.4467 -93.5717 86° East 526 605 37,000  Level Minneapolis Center
08:46PM 42.4581 -93.3767 85° East 525 604 37,000  Level Minneapolis Center
08:47PM 42.4689 -93.1808 86° East 527 606 37,000  Level Minneapolis Center
08:48PM 42.4811 -92.9469 86° East 526 605 37,000  Level Minneapolis Center
08:49PM 42.4903 -92.7522 86° East 524 603 37,000 -300 Level Minneapolis Center
08:50PM 42.5006 -92.5583 86° East 523 602 36,400 -840 Descending Minneapolis Center
08:51PM 42.5100 -92.3647 86° East 522 601 35,300 -720 Descending Minneapolis Center
08:52PM 42.5200 -92.1344 87° East 520 598 35,000 -180 Descending Minneapolis Center
08:53PM 42.5264 -91.9442 87° East 516 594 35,000 -480 Level Minneapolis Center
08:54PM 42.5247 -91.7539 91° East 516 594 34,100 -1,140 Descending Minneapolis Center
08:55PM 42.5242 -91.5628 90° East 519 597 32,700 -1,260 Descending Minneapolis Center
08:56PM 42.5250 -91.3319 90° East 523 602 31,500 -840 Descending Minneapolis Center
08:57PM 42.5250 -91.1442 90° East 514 592 31,000 -300 Descending Minneapolis Center
08:58PM 42.5239 -90.9547 90° East 511 588 31,000  Level Minneapolis Center
08:59PM 42.5233 -90.7636 90° East 513 590 31,000  Level Minneapolis Center
09:00PM 42.5231 -90.4583 90° East 515 593 31,000 -300 Level Chicago Center
09:01PM 42.5200 -90.2656 91° East 516 594 30,300 -1,020 Descending Chicago Center
09:02PM 42.5022 -90.0756 97° East 514 592 28,900 -2,040 Descending Chicago Center
09:04PM 42.4853 -89.8672 96° East 493 567 26,200 -2,520 Descending Chicago Center
09:05PM 42.4725 -89.6942 96° East 468 539 23,700 -2,160 Descending Chicago Center
09:06PM 42.4606 -89.5253 95° East 454 522 21,700 -2,040 Descending Chicago Center
09:07PM 42.4481 -89.3639 96° East 436 502 19,600 -2,100 Descending Chicago Center
09:08PM 42.4342 -89.2083 97° East 420 483 17,400 -2,340 Descending Chicago Center
09:09PM 42.4200 -89.0308 96° East 403 464 14,800 -2,280 Descending Chicago Center
09:10PM 42.4081 -88.8878 96° East 392 451 12,700 -2,040 Descending Chicago Center
09:11PM 42.3961 -88.7500 97° East 379 436 10,700 -1,260 Descending Chicago Center
09:12PM 42.3861 -88.6228 96° East 359 413 10,200 -780 Descending Chicago Center
09:13PM 42.3758 -88.5175 97° East 309 356 9,200 -720 Descending Chicago Center
09:14PM 42.3464 -88.4217 113° Southeast 291 335 8,700 -780 Descending Chicago Center
09:15PM 42.2969 -88.3422 130° Southeast 276 318 7,700 -1,260 Descending Chicago Center
09:16PM 42.2433 -88.2592 131° Southeast 253 291 6,200 -1,320 Descending Chicago Center
09:17PM 42.1978 -88.1878 131° Southeast 252 290 5,000 -660 Descending Chicago Center
09:18PM 42.1561 -88.1200 130° Southeast 241 277 4,900 -660 Descending Chicago Center
09:19PM 42.1167 -88.0833 145° Southeast 216 249 3,900 -1,200 Descending Chicago TRACON
09:20PM 42.0833 -88.0333 132° Southeast 171 197 2,900 -900 Descending Chicago TRACON
09:21PM 42.0500 -88.0000 143° Southeast 150 173 2,100 -720 Descending Chicago TRACON
09:22PM 42.0167 -87.9667 143° Southeast 120 138 1,500 -660 Descending Chicago TRACON
09:23PM 42.0000 -87.9333 124° Southeast 130 150 800 -720 Descending Chicago TRACON